Time;durP1;ratioP1;P1;durP2;ratioP2;P2;SDS_P1;SDS_P2;PMS_P1;PMS_P2;Temp;Humidity;BMP_temperature;BMP_pressure;BME280_temperature;BME280_humidity;BME280_pressure;Samples;Min_cycle;Max_cycle;Signal;HPM_P1;HPM_P2
2024/01/14 00:01:17;;;;;;;;;60.25;43.25;;;;;2.20;61.56;101418.72;5026099;28;55388;-61
2024/01/14 00:03:42;;;;;;;;;60.00;43.50;;;;;2.21;61.48;101412.72;5025363;28;45365;-61
2024/01/14 00:06:07;;;;;;;;;59.67;40.00;;;;;2.22;61.47;101408.41;5003070;28;66442;-61
2024/01/14 00:08:33;;;;;;;;;60.50;42.25;;;;;2.20;61.42;101403.22;5037132;28;63572;-61
2024/01/14 00:10:58;;;;;;;;;59.00;43.67;;;;;2.20;61.50;101398.06;5028070;28;69208;-61
2024/01/14 00:13:23;;;;;;;;;57.00;41.33;;;;;2.20;61.56;101399.78;5034954;28;71971;-61
2024/01/14 00:15:49;;;;;;;;;56.00;42.33;;;;;2.20;61.54;101395.47;5023414;28;69856;-61
2024/01/14 00:18:14;;;;;;;;;54.75;41.25;;;;;2.19;61.09;101396.28;5020669;28;71766;-61
2024/01/14 00:20:39;;;;;;;;;59.00;39.25;;;;;2.16;61.26;101380.78;5029908;28;68154;-61
2024/01/14 00:23:05;;;;;;;;;62.50;40.25;;;;;2.12;61.21;101378.09;5033977;28;45428;-61
2024/01/14 00:25:31;;;;;;;;;55.75;41.75;;;;;2.09;61.38;101373.75;5033813;28;46299;-61
2024/01/14 00:27:56;;;;;;;;;61.00;44.25;;;;;2.11;61.48;101371.19;5039402;28;45269;-61
2024/01/14 00:30:21;;;;;;;;;63.75;42.75;;;;;2.11;61.58;101354.00;5025803;28;45455;-61
2024/01/14 00:32:47;;;;;;;;;58.00;38.00;;;;;2.12;61.44;101349.69;5032135;28;71525;-62
2024/01/14 00:35:12;;;;;;;;;60.33;42.33;;;;;2.13;61.63;101348.88;5024804;28;74542;-61
2024/01/14 00:37:37;;;;;;;;;65.25;42.00;;;;;2.14;61.42;101351.44;5032417;28;45325;-62
2024/01/14 00:40:06;;;;;;;;;53.67;36.33;;;;;2.12;61.57;101344.53;5026405;28;68616;-61
2024/01/14 00:42:32;;;;;;;;;60.75;39.75;;;;;2.10;61.54;101344.50;5012034;28;45368;-61
2024/01/14 00:44:58;;;;;;;;;57.50;40.25;;;;;2.09;61.64;101337.63;5033562;28;46157;-61
2024/01/14 00:47:23;;;;;;;;;58.25;35.25;;;;;2.02;61.36;101334.06;5032734;28;46570;-61
2024/01/14 00:49:49;;;;;;;;;55.00;37.50;;;;;1.98;61.63;101327.06;5021475;28;45342;-61
2024/01/14 00:52:14;;;;;;;;;59.00;36.25;;;;;1.99;61.77;101325.38;5024436;28;61704;-61
2024/01/14 00:54:39;;;;;;;;;55.33;39.33;;;;;1.98;61.50;101319.34;5033260;28;69630;-61
2024/01/14 00:57:05;;;;;;;;;62.33;33.67;;;;;2.00;61.90;101312.50;5026278;28;71286;-61
2024/01/14 00:59:30;;;;;;;;;59.75;35.50;;;;;2.02;61.55;101315.09;5027101;28;48732;-61
2024/01/14 01:01:55;;;;;;;;;59.00;38.25;;;;;1.98;61.81;101303.84;5039738;28;45511;-61
2024/01/14 01:04:21;;;;;;;;;58.00;37.00;;;;;1.96;61.48;101299.50;5036193;28;73971;-62
2024/01/14 01:06:46;;;;;;;;;50.50;37.75;;;;;1.93;61.92;101300.34;5033954;28;45305;-62
2024/01/14 01:09:11;;;;;;;;;48.25;33.75;;;;;1.92;61.99;101293.44;5009124;28;45731;-61
2024/01/14 01:11:37;;;;;;;;;52.50;36.25;;;;;1.92;62.05;101295.16;5024359;28;45366;-61
2024/01/14 01:14:02;;;;;;;;;44.25;36.75;;;;;1.92;62.01;101290.00;5033763;28;58439;-61
2024/01/14 01:16:28;;;;;;;;;51.25;39.25;;;;;1.91;61.83;101296.84;5016137;28;45398;-61
2024/01/14 01:18:53;;;;;;;;;44.50;37.25;;;;;1.92;62.03;101300.31;5038273;28;45371;-62
2024/01/14 01:21:22;;;;;;;;;60.25;42.25;;;;;1.89;61.63;101301.09;5024832;28;45254;-61
2024/01/14 01:23:48;;;;;;;;;53.75;36.75;;;;;1.86;62.29;101304.53;5025494;28;46106;-61
2024/01/14 01:26:13;;;;;;;;;40.50;28.00;;;;;1.84;62.18;101307.91;5038720;28;45719;-61
2024/01/14 01:28:39;;;;;;;;;52.00;36.00;;;;;1.81;62.18;101316.47;5039638;28;45380;-61
2024/01/14 01:31:04;;;;;;;;;51.00;38.25;;;;;1.77;62.41;101309.53;5034472;28;45447;-61
2024/01/14 01:33:30;;;;;;;;;52.25;31.00;;;;;1.77;62.03;101313.78;5009223;28;75624;-62
2024/01/14 01:35:55;;;;;;;;;53.25;38.50;;;;;1.77;62.07;101306.03;5036394;28;67879;-61
2024/01/14 01:38:20;;;;;;;;;53.67;36.00;;;;;1.75;62.03;101298.28;5030651;28;65980;-62
2024/01/14 01:40:46;;;;;;;;;52.67;36.33;;;;;1.73;62.46;101294.81;5035715;28;70464;-61
2024/01/14 01:43:11;;;;;;;;;41.25;30.00;;;;;1.73;62.18;101302.53;5023723;28;47289;-62
2024/01/14 01:45:37;;;;;;;;;45.75;33.50;;;;;1.75;62.28;101297.41;5033021;28;61547;-61
2024/01/14 01:48:04;;;;;;;;;52.25;35.75;;;;;1.76;62.22;101292.28;5011466;28;45645;-61
2024/01/14 01:50:30;;;;;;;;;43.00;32.00;;;;;1.79;62.23;101287.19;5026096;28;45322;-62
2024/01/14 01:52:56;;;;;;;;;46.50;34.00;;;;;1.80;61.99;101283.75;5010253;28;46671;-61
2024/01/14 01:55:21;;;;;;;;;41.25;33.75;;;;;1.82;62.13;101278.63;5022471;28;45328;-61
2024/01/14 01:57:47;;;;;;;;;53.25;38.50;;;;;1.84;62.33;101276.94;5017241;28;45385;-61
2024/01/14 02:00:13;;;;;;;;;60.75;38.75;;;;;1.84;62.15;101275.25;5038902;28;45245;-62
2024/01/14 02:02:40;;;;;;;;;45.25;34.75;;;;;1.83;62.18;101276.06;5017775;28;46945;-61
2024/01/14 02:05:06;;;;;;;;;43.50;34.25;;;;;1.81;62.14;101264.84;5032877;28;45357;-61
2024/01/14 02:07:32;;;;;;;;;54.00;36.75;;;;;1.80;62.54;101260.53;5012933;28;67788;-61
2024/01/14 02:09:57;;;;;;;;;54.00;37.50;;;;;1.78;62.18;101259.63;5026596;28;72983;-61
2024/01/14 02:12:22;;;;;;;;;50.50;37.00;;;;;1.79;62.39;101257.91;5016752;28;52174;-61
2024/01/14 02:14:48;;;;;;;;;55.75;37.25;;;;;1.79;62.29;101261.38;5028475;28;65268;-61
2024/01/14 02:17:13;;;;;;;;;42.25;35.75;;;;;1.79;62.27;101253.66;5028500;28;69228;-61
2024/01/14 02:19:38;;;;;;;;;46.25;32.75;;;;;1.82;62.32;101253.66;5034175;28;45428;-61
2024/01/14 02:22:08;;;;;;;;;60.67;33.00;;;;;1.81;62.45;101244.22;5013054;28;70845;-62
2024/01/14 02:24:33;;;;;;;;;49.50;36.00;;;;;1.82;62.12;101245.94;5014311;28;45598;-61
2024/01/14 02:26:59;;;;;;;;;56.75;32.50;;;;;1.83;62.71;101234.78;5019845;28;45365;-61
2024/01/14 02:29:27;;;;;;;;;43.25;32.50;;;;;1.87;62.26;101241.72;5033806;28;45448;-62
2024/01/14 02:31:53;;;;;;;;;47.75;31.25;;;;;1.86;62.33;101240.00;5040592;28;46350;-61
2024/01/14 02:34:19;;;;;;;;;41.50;34.00;;;;;1.86;62.31;101236.53;5042073;28;45264;-61
2024/01/14 02:36:44;;;;;;;;;47.00;30.67;;;;;1.84;62.04;101230.47;5002990;28;71381;-61
2024/01/14 02:39:09;;;;;;;;;49.00;30.25;;;;;1.82;62.24;101232.16;5027090;28;45619;-62
2024/01/14 02:41:35;;;;;;;;;46.00;30.33;;;;;1.80;62.36;101226.97;5034139;28;74728;-61
2024/01/14 02:44:00;;;;;;;;;43.25;31.50;;;;;1.80;62.21;101218.38;5031336;28;59199;-61
2024/01/14 02:46:27;;;;;;;;;43.50;29.25;;;;;1.80;62.11;101223.53;5013640;28;45303;-61
2024/01/14 02:48:52;;;;;;;;;46.00;31.75;;;;;1.79;62.34;101217.53;5024222;28;45443;-62
2024/01/14 02:51:18;;;;;;;;;44.33;32.00;;;;;1.79;62.09;101207.19;5036976;28;75779;-61
2024/01/14 02:53:43;;;;;;;;;48.00;35.67;;;;;1.80;62.43;101214.06;5003105;28;73324;-61
2024/01/14 02:56:10;;;;;;;;;51.25;33.00;;;;;1.78;62.17;101208.03;5031558;28;45680;-61
2024/01/14 02:58:36;;;;;;;;;43.50;34.00;;;;;1.80;62.22;101201.19;5019889;28;45512;-61
2024/01/14 03:01:01;;;;;;;;;41.25;31.25;;;;;1.81;62.37;101202.06;5025555;28;45421;-61
2024/01/14 03:03:26;;;;;;;;;51.25;32.75;;;;;1.82;62.13;101198.63;5033772;28;45316;-61
2024/01/14 03:05:52;;;;;;;;;31.25;24.50;;;;;1.80;62.04;101203.75;5016796;28;45519;-61
2024/01/14 03:08:18;;;;;;;;;45.25;32.25;;;;;1.79;62.19;101196.88;5036128;28;45309;-61
2024/01/14 03:10:43;;;;;;;;;42.00;24.50;;;;;1.81;62.19;101186.59;5034552;28;46869;-61
2024/01/14 03:13:09;;;;;;;;;43.25;31.75;;;;;1.79;62.05;101183.09;5036080;28;45408;-61
2024/01/14 03:15:34;;;;;;;;;42.25;31.25;;;;;1.79;61.87;101188.25;5008220;28;64016;-61
2024/01/14 03:18:00;;;;;;;;;42.00;28.00;;;;;1.78;61.97;101184.81;5027487;28;45332;-61
2024/01/14 03:20:25;;;;;;;;;31.75;25.00;;;;;1.77;62.15;101195.09;5024889;28;75716;-61
2024/01/14 03:22:50;;;;;;;;;41.50;27.75;;;;;1.77;62.17;101184.78;5027380;28;62817;-61
2024/01/14 03:25:16;;;;;;;;;43.50;28.00;;;;;1.76;62.13;101183.06;5035881;28;45416;-61
2024/01/14 03:27:41;;;;;;;;;52.00;30.25;;;;;1.79;62.03;101188.25;5027100;28;73250;-61
2024/01/14 03:30:07;;;;;;;;;41.50;31.25;;;;;1.76;61.81;101181.34;5040870;28;47844;-61
2024/01/14 03:32:32;;;;;;;;;44.25;28.00;;;;;1.77;61.81;101183.09;5020686;28;45444;-61
2024/01/14 03:34:58;;;;;;;;;37.75;28.25;;;;;1.78;61.89;101176.19;5026191;28;45440;-61
2024/01/14 03:37:23;;;;;;;;;43.25;30.50;;;;;1.76;61.89;101173.59;5040083;28;46439;-61
2024/01/14 03:39:52;;;;;;;;;41.75;32.25;;;;;1.78;61.64;101178.78;5030060;28;74554;-61
2024/01/14 03:42:18;;;;;;;;;39.00;24.50;;;;;1.78;61.80;101166.75;5040008;28;45435;-61
2024/01/14 03:44:43;;;;;;;;;38.50;32.00;;;;;1.79;61.86;101171.06;5039840;28;67499;-61
2024/01/14 03:47:08;;;;;;;;;43.50;29.75;;;;;1.80;62.07;101161.59;5024561;28;46603;-61
2024/01/14 03:49:34;;;;;;;;;47.50;32.00;;;;;1.82;62.06;101165.94;5015022;28;72694;-61
2024/01/14 03:51:59;;;;;;;;;46.33;32.00;;;;;1.81;61.84;101161.63;5031741;28;62617;-61
2024/01/14 03:54:24;;;;;;;;;45.75;30.75;;;;;1.82;61.71;101159.91;5031298;28;66123;-61
2024/01/14 03:56:50;;;;;;;;;55.75;33.50;;;;;1.81;61.67;101153.91;5038339;28;69924;-61
2024/01/14 03:59:15;;;;;;;;;51.00;36.25;;;;;1.75;61.82;101140.88;5028379;28;54275;-61
2024/01/14 04:01:42;;;;;;;;;41.25;29.00;;;;;1.79;62.01;101142.69;5038090;28;45286;-61
2024/01/14 04:04:08;;;;;;;;;48.25;34.75;;;;;1.75;61.79;101140.03;5021642;28;45354;-61
2024/01/14 04:06:33;;;;;;;;;52.00;30.50;;;;;1.73;61.57;101142.56;4997361;28;45585;-61
2024/01/14 04:08:58;;;;;;;;;34.67;28.67;;;;;1.71;61.77;101127.06;5024264;28;75305;-61
2024/01/14 04:11:24;;;;;;;;;46.25;32.25;;;;;1.69;61.81;101127.91;5020188;28;45867;-61
2024/01/14 04:13:49;;;;;;;;;39.50;26.50;;;;;1.63;61.73;101120.94;5040113;28;45442;-62
2024/01/14 04:16:15;;;;;;;;;42.00;27.25;;;;;1.59;61.70;101108.81;5033327;28;45380;-61
2024/01/14 04:18:40;;;;;;;;;42.25;32.75;;;;;1.58;61.74;101116.56;5010120;28;46308;-62
2024/01/14 04:21:06;;;;;;;;;43.67;28.00;;;;;1.56;61.77;101113.06;5026839;28;72039;-61
2024/01/14 04:23:31;;;;;;;;;42.67;31.00;;;;;1.55;61.90;101111.34;5005914;28;69316;-61
2024/01/14 04:25:56;;;;;;;;;50.00;32.00;;;;;1.58;61.76;101108.81;5018001;28;63984;-61
2024/01/14 04:28:21;;;;;;;;;59.33;32.67;;;;;1.58;61.95;101111.41;5020758;28;74485;-61
2024/01/14 04:30:47;;;;;;;;;53.00;31.00;;;;;1.56;61.85;101103.63;5010951;28;71909;-62
2024/01/14 04:33:12;;;;;;;;;49.67;29.67;;;;;1.55;61.76;101104.47;5018433;28;67719;-61
2024/01/14 04:35:37;;;;;;;;;39.67;32.00;;;;;1.53;61.65;101111.31;5025394;28;72824;-61
2024/01/14 04:38:03;;;;;;;;;40.50;32.75;;;;;1.48;61.74;101102.63;5038867;28;45830;-61
2024/01/14 04:40:29;;;;;;;;;48.50;30.50;;;;;1.45;61.58;101108.63;5036812;28;45413;-61
2024/01/14 04:42:54;;;;;;;;;44.75;35.00;;;;;1.45;61.91;101106.03;5037889;28;45383;-61
2024/01/14 04:45:20;;;;;;;;;44.50;32.50;;;;;1.47;61.81;101103.47;5033708;28;45527;-61
2024/01/14 04:47:45;;;;;;;;;41.50;31.50;;;;;1.49;61.79;101105.25;5022500;28;75591;-61
2024/01/14 04:50:10;;;;;;;;;43.33;34.67;;;;;1.51;62.08;101105.28;5030233;28;70670;-61
2024/01/14 04:52:36;;;;;;;;;39.75;30.00;;;;;1.53;62.04;101101.00;5026096;28;45347;-61
2024/01/14 04:55:01;;;;;;;;;41.00;27.00;;;;;1.56;61.54;101100.16;5038341;28;68976;-61
2024/01/14 04:57:26;;;;;;;;;44.50;32.25;;;;;1.57;61.58;101095.03;5008323;28;72673;-61
2024/01/14 04:59:52;;;;;;;;;46.75;33.00;;;;;1.55;61.78;101096.72;5030638;28;56276;-61
2024/01/14 05:02:17;;;;;;;;;43.75;29.75;;;;;1.55;61.86;101099.31;5039252;28;45373;-61
2024/01/14 05:04:42;;;;;;;;;42.67;31.33;;;;;1.56;61.77;101098.47;5012601;28;69881;-61
2024/01/14 05:07:08;;;;;;;;;39.33;32.33;;;;;1.54;62.14;101092.44;5024621;28;73929;-61
2024/01/14 05:09:33;;;;;;;;;55.00;32.00;;;;;1.53;62.06;101093.25;5035490;28;68063;-61
2024/01/14 05:11:58;;;;;;;;;49.00;35.50;;;;;1.54;62.10;101095.00;5034444;28;45531;-60
2024/01/14 05:14:23;;;;;;;;;57.75;34.00;;;;;1.54;62.14;101087.28;5036120;28;69610;-61
2024/01/14 05:16:49;;;;;;;;;52.67;33.00;;;;;1.57;62.23;101091.59;5031095;28;72231;-61
2024/01/14 05:19:14;;;;;;;;;39.75;31.25;;;;;1.59;61.94;101093.34;5028576;28;48090;-61
2024/01/14 05:21:39;;;;;;;;;38.00;31.50;;;;;1.57;61.94;101081.28;5015317;28;45341;-62
2024/01/14 05:24:05;;;;;;;;;43.00;29.25;;;;;1.55;61.99;101086.41;5030679;28;47068;-61
2024/01/14 05:26:30;;;;;;;;;53.25;33.50;;;;;1.54;61.87;101082.13;5026481;28;59638;-61
2024/01/14 05:28:59;;;;;;;;;50.25;32.25;;;;;1.56;62.02;101084.69;5020877;28;45370;-61
2024/01/14 05:31:25;;;;;;;;;54.25;32.75;;;;;1.56;61.99;101079.53;5032879;28;45472;-61
2024/01/14 05:33:50;;;;;;;;;45.00;31.00;;;;;1.55;61.79;101078.66;5019994;28;45448;-61
2024/01/14 05:36:15;;;;;;;;;47.33;36.33;;;;;1.52;61.95;101081.19;5018607;28;71177;-62
2024/01/14 05:38:41;;;;;;;;;58.00;35.00;;;;;1.49;61.96;101078.59;5034750;28;72133;-61
2024/01/14 05:41:07;;;;;;;;;57.50;35.25;;;;;1.47;61.91;101075.09;5021384;28;45358;-61
2024/01/14 05:43:32;;;;;;;;;47.00;36.00;;;;;1.45;62.03;101074.22;5034924;28;73629;-61
2024/01/14 05:45:57;;;;;;;;;47.25;31.00;;;;;1.41;62.11;101078.44;5023029;28;57122;-61
2024/01/14 05:48:22;;;;;;;;;51.50;35.50;;;;;1.43;62.00;101084.50;5033082;28;73435;-61
2024/01/14 05:50:48;;;;;;;;;41.33;27.00;;;;;1.43;61.90;101083.63;5029173;28;64165;-61
2024/01/14 05:53:13;;;;;;;;;49.00;34.00;;;;;1.41;62.01;101078.44;5016580;28;72064;-61
2024/01/14 05:55:38;;;;;;;;;57.67;39.00;;;;;1.40;61.98;101079.31;5026150;28;70780;-61
2024/01/14 05:58:04;;;;;;;;;41.00;31.00;;;;;1.39;62.15;101080.13;5019308;28;45392;-61
2024/01/14 06:00:29;;;;;;;;;45.00;34.00;;;;;1.37;61.98;101075.81;5030174;28;54313;-61
2024/01/14 06:02:54;;;;;;;;;49.25;40.00;;;;;1.35;62.20;101078.38;5025061;28;71893;-61
2024/01/14 06:05:20;;;;;;;;;57.25;36.00;;;;;1.32;61.76;101078.31;5020472;28;63674;-61
2024/01/14 06:07:45;;;;;;;;;56.25;34.00;;;;;1.32;62.05;101081.75;5030285;28;71512;-61
2024/01/14 06:10:11;;;;;;;;;46.50;33.50;;;;;1.32;62.19;101080.88;5027834;28;45470;-61
2024/01/14 06:12:36;;;;;;;;;60.50;40.75;;;;;1.27;62.14;101069.63;5042423;28;64151;-61
2024/01/14 06:15:01;;;;;;;;;38.00;30.33;;;;;1.24;62.13;101072.13;5034591;28;75700;-61
2024/01/14 06:17:27;;;;;;;;;61.75;38.25;;;;;1.22;62.16;101068.69;5030771;28;66725;-61
2024/01/14 06:19:52;;;;;;;;;55.67;38.00;;;;;1.25;62.18;101068.72;5038744;28;64802;-61
2024/01/14 06:22:18;;;;;;;;;46.75;34.00;;;;;1.25;62.31;101064.44;5025379;28;45503;-61
2024/01/14 06:24:46;;;;;;;;;50.00;31.67;;;;;1.27;62.05;101060.16;5029638;28;74567;-61
2024/01/14 06:27:12;;;;;;;;;61.00;43.00;;;;;1.28;62.01;101064.50;5035657;28;45727;-61
2024/01/14 06:29:37;;;;;;;;;62.75;40.50;;;;;1.31;62.07;101066.25;5038866;28;61313;-61
2024/01/14 06:32:02;;;;;;;;;57.00;34.67;;;;;1.31;61.90;101067.13;5006193;28;71263;-61
2024/01/14 06:34:28;;;;;;;;;54.00;36.25;;;;;1.30;61.88;101067.09;5010468;28;48318;-61
2024/01/14 06:36:53;;;;;;;;;44.33;30.33;;;;;1.26;61.98;101068.75;5034250;28;71548;-61
2024/01/14 06:39:19;;;;;;;;;43.00;32.33;;;;;1.20;62.20;101073.81;5028741;28;62772;-61
2024/01/14 06:41:44;;;;;;;;;51.50;40.00;;;;;1.18;62.29;101066.91;5034147;28;45433;-61
2024/01/14 06:44:09;;;;;;;;;44.33;31.33;;;;;1.16;62.03;101066.00;5037135;28;73420;-61
2024/01/14 06:46:41;;;;;;;;;56.00;35.33;;;;;1.15;62.11;101065.13;5037080;28;71350;-61
2024/01/14 06:49:06;;;;;;;;;48.25;32.00;;;;;1.16;62.39;101066.00;5036893;28;45479;-61
2024/01/14 06:51:32;;;;;;;;;47.00;28.33;;;;;1.15;62.23;101057.38;5039100;28;71298;-61
2024/01/14 06:53:57;;;;;;;;;45.00;35.67;;;;;1.19;62.36;101066.94;5037093;28;72445;-62
2024/01/14 06:56:22;;;;;;;;;46.75;37.50;;;;;1.17;62.32;101062.56;5038375;28;45419;-61
2024/01/14 06:58:52;;;;;;;;;40.33;32.67;;;;;1.10;62.10;101059.91;5042106;28;69146;-61
2024/01/14 07:01:17;;;;;;;;;49.00;33.50;;;;;1.08;62.34;101061.59;5019161;28;45605;-61
2024/01/14 07:03:43;;;;;;;;;48.33;34.67;;;;;1.08;62.40;101064.19;5037369;28;75281;-61
2024/01/14 07:06:08;;;;;;;;;50.25;37.00;;;;;1.07;62.90;101054.69;5031578;28;45404;-61
2024/01/14 07:08:33;;;;;;;;;45.33;34.00;;;;;1.12;62.31;101065.09;5032566;28;69074;-61
2024/01/14 07:11:00;;;;;;;;;53.25;37.25;;;;;1.12;62.31;101057.38;5036989;28;45275;-61
2024/01/14 07:13:26;;;;;;;;;52.00;39.75;;;;;1.11;62.40;101058.19;5035287;28;46238;-61
2024/01/14 07:15:51;;;;;;;;;51.75;35.75;;;;;1.08;62.52;101052.97;5034123;28;46326;-61
2024/01/14 07:18:17;;;;;;;;;50.00;32.25;;;;;1.01;62.53;101054.59;5030862;28;59820;-61
2024/01/14 07:20:42;;;;;;;;;61.75;36.75;;;;;0.97;62.53;101054.50;5041210;28;45320;-61
2024/01/14 07:23:07;;;;;;;;;50.00;36.75;;;;;0.90;62.37;101049.25;5025770;28;46415;-61
2024/01/14 07:25:33;;;;;;;;;58.75;38.75;;;;;0.85;62.52;101055.16;5027466;28;45365;-61
2024/01/14 07:27:58;;;;;;;;;50.00;35.00;;;;;0.78;62.61;101054.19;5038261;28;66725;-61
2024/01/14 07:30:23;;;;;;;;;48.33;33.33;;;;;0.74;62.78;101052.38;5037664;28;73262;-61
2024/01/14 07:32:48;;;;;;;;;46.33;36.00;;;;;0.71;62.82;101053.22;5024099;28;73780;-61
2024/01/14 07:35:14;;;;;;;;;52.25;33.25;;;;;0.71;62.70;101055.78;5036941;28;45436;-61
2024/01/14 07:37:39;;;;;;;;;41.50;24.75;;;;;0.68;63.03;101057.44;5037011;28;55338;-61
2024/01/14 07:40:05;;;;;;;;;50.67;33.00;;;;;0.71;63.17;101060.06;5038659;28;71946;-61
2024/01/14 07:42:30;;;;;;;;;39.25;28.00;;;;;0.74;62.84;101054.97;5036166;28;45466;-61
2024/01/14 07:44:57;;;;;;;;;49.50;34.00;;;;;0.77;62.98;101054.16;5037923;28;45373;-61
2024/01/14 07:47:22;;;;;;;;;39.67;23.00;;;;;0.78;63.05;101051.63;5025734;28;60298;-61
2024/01/14 07:49:49;;;;;;;;;54.00;37.75;;;;;0.78;62.93;101056.78;5025227;28;62549;-61
2024/01/14 07:52:17;;;;;;;;;53.75;38.50;;;;;0.79;62.96;101050.75;5032218;28;46289;-61
2024/01/14 07:54:43;;;;;;;;;44.25;33.00;;;;;0.80;62.91;101054.19;5028570;28;45395;-61
2024/01/14 07:57:09;;;;;;;;;51.75;35.25;;;;;0.78;62.88;101049.03;5035030;28;45352;-61
2024/01/14 07:59:34;;;;;;;;;42.50;34.00;;;;;0.79;62.70;101055.06;5010245;28;45420;-61
2024/01/14 08:02:00;;;;;;;;;51.00;35.67;;;;;0.81;62.79;101061.09;5006043;28;74649;-60
2024/01/14 08:04:25;;;;;;;;;46.00;33.50;;;;;0.83;63.00;101057.69;5002292;28;45712;-61
2024/01/14 08:06:51;;;;;;;;;47.33;33.33;;;;;0.88;62.96;101058.66;5036577;28;69148;-60
2024/01/14 08:09:17;;;;;;;;;52.25;41.25;;;;;0.92;62.82;101060.47;5025490;28;45436;-60
2024/01/14 08:11:42;;;;;;;;;51.00;35.00;;;;;0.98;62.69;101058.84;5003673;28;45956;-61
2024/01/14 08:14:07;;;;;;;;;35.25;30.00;;;;;1.01;62.88;101066.59;5035907;28;45416;-60
2024/01/14 08:16:33;;;;;;;;;51.67;36.00;;;;;1.05;62.86;101066.69;5012055;28;69337;-61
2024/01/14 08:18:58;;;;;;;;;61.00;32.00;;;;;1.08;62.55;101060.69;5035946;28;72318;-60
2024/01/14 08:21:23;;;;;;;;;49.50;36.75;;;;;1.09;62.45;101062.44;5032098;28;46153;-60
2024/01/14 08:23:49;;;;;;;;;49.67;34.67;;;;;1.12;62.58;101068.53;5029704;28;65189;-60
2024/01/14 08:26:14;;;;;;;;;48.33;37.00;;;;;1.15;62.54;101059.97;5023786;28;69383;-60
2024/01/14 08:28:39;;;;;;;;;59.00;40.50;;;;;1.20;62.61;101060.06;5031729;28;45566;-60
2024/01/14 08:31:05;;;;;;;;;48.00;33.00;;;;;1.26;62.71;101060.16;5008080;28;49866;-60
2024/01/14 08:33:30;;;;;;;;;46.50;32.75;;;;;1.31;62.56;101064.56;5027935;28;45452;-61
2024/01/14 08:35:56;;;;;;;;;32.33;27.67;;;;;1.37;62.70;101068.06;5028072;28;66321;-62
2024/01/14 08:38:21;;;;;;;;;39.75;28.75;;;;;1.40;62.66;101062.94;5032013;28;45233;-61
2024/01/14 08:40:47;;;;;;;;;47.00;31.50;;;;;1.45;62.57;101056.16;5033175;28;46938;-64
2024/01/14 08:43:12;;;;;;;;;44.75;31.00;;;;;1.49;62.29;101056.25;5038769;28;45408;-60
2024/01/14 08:45:38;;;;;;;;;56.00;34.25;;;;;1.52;62.47;101056.28;5026441;28;60071;-61
2024/01/14 08:48:06;;;;;;;;;45.00;29.25;;;;;1.54;62.14;101058.91;5025454;28;46289;-60
2024/01/14 08:50:32;;;;;;;;;51.75;35.00;;;;;1.52;61.95;101056.28;5017490;28;46954;-64
2024/01/14 08:52:57;;;;;;;;;42.25;35.00;;;;;1.51;62.11;101053.69;5028621;28;45824;-63
2024/01/14 08:55:22;;;;;;;;;48.75;34.50;;;;;1.51;61.85;101053.69;5013858;28;45493;-63
2024/01/14 08:57:48;;;;;;;;;47.00;33.75;;;;;1.52;62.16;101048.56;5024589;28;45459;-63
2024/01/14 09:00:13;;;;;;;;;43.50;30.25;;;;;1.54;62.09;101050.28;5029611;28;46666;-62
2024/01/14 09:02:39;;;;;;;;;46.50;33.25;;;;;1.55;62.14;101042.56;5019450;28;46434;-63
2024/01/14 09:05:05;;;;;;;;;55.00;34.50;;;;;1.58;62.06;101029.72;5018602;28;45333;-61
2024/01/14 09:07:30;;;;;;;;;33.50;33.00;;;;;1.61;62.20;101037.50;4992608;28;47120;-61
2024/01/14 09:09:56;;;;;;;;;25.75;12.50;;;;;1.63;61.85;101033.22;5002841;28;47057;-61
2024/01/14 09:12:21;;;;;;;;;53.00;37.75;;;;;1.61;61.88;101023.72;5028014;28;45614;-61
2024/01/14 09:14:47;;;;;;;;;53.50;33.75;;;;;1.62;61.79;101018.59;5019358;28;45396;-61
2024/01/14 09:17:12;;;;;;;;;58.25;37.00;;;;;1.64;61.92;101016.03;5029913;28;45397;-61
2024/01/14 09:19:38;;;;;;;;;60.25;39.25;;;;;1.66;61.76;101016.91;5030186;28;45800;-61
2024/01/14 09:22:03;;;;;;;;;46.75;36.75;;;;;1.69;61.59;101010.09;4995444;28;45288;-61
2024/01/14 09:24:29;;;;;;;;;58.33;36.00;;;;;1.72;61.56;101009.28;5029411;28;61635;-60
2024/01/14 09:26:54;;;;;;;;;60.50;40.25;;;;;1.74;61.83;101012.75;5020561;28;45420;-62
2024/01/14 09:29:21;;;;;;;;;47.50;32.50;;;;;1.75;61.52;101006.72;5036272;28;45364;-61
2024/01/14 09:31:46;;;;;;;;;50.00;38.00;;;;;1.78;61.53;100995.59;5021258;28;45365;-62
2024/01/14 09:34:11;;;;;;;;;51.33;38.00;;;;;1.84;61.58;101005.97;5003399;28;69091;-62
2024/01/14 09:36:38;;;;;;;;;54.00;38.67;;;;;1.88;61.74;101002.59;5031816;28;72116;-62
2024/01/14 09:39:04;;;;;;;;;59.00;36.00;;;;;1.93;61.64;101006.13;5002235;28;48459;-62
2024/01/14 09:41:38;;;;;;;;;57.67;36.33;;;;;1.98;61.47;101001.00;5025825;28;72159;-62
2024/01/14 09:44:04;;;;;;;;;49.25;39.00;;;;;2.01;61.38;101003.63;5020566;28;45467;-62
2024/01/14 09:46:30;;;;;;;;;42.75;30.00;;;;;2.04;61.37;101001.09;5037506;28;45385;-62
2024/01/14 09:48:55;;;;;;;;;51.50;31.00;;;;;2.05;61.26;101002.81;5015038;28;45444;-62
2024/01/14 09:51:29;;;;;;;;;56.50;34.25;;;;;2.05;61.26;101006.28;5024334;28;45930;-62
2024/01/14 09:53:56;;;;;;;;;57.00;34.25;;;;;2.06;61.47;101002.81;5034815;28;45374;-63
2024/01/14 09:56:22;;;;;;;;;50.25;37.25;;;;;2.07;61.26;100999.41;5026566;28;45401;-63
2024/01/14 09:58:48;;;;;;;;;49.75;35.00;;;;;2.09;61.32;100999.44;5014996;28;75498;-63
2024/01/14 10:01:16;;;;;;;;;50.25;31.00;;;;;2.14;61.20;100994.31;5022430;28;68252;-63
2024/01/14 10:03:41;;;;;;;;;47.50;37.00;;;;;2.15;61.34;100999.50;5015550;28;66905;-64
2024/01/14 10:06:07;;;;;;;;;47.25;39.50;;;;;2.19;61.18;100993.50;5043520;28;61667;-63
2024/01/14 10:08:32;;;;;;;;;58.75;38.00;;;;;2.21;61.06;100997.00;5014922;28;46473;-65
2024/01/14 10:10:58;;;;;;;;;43.25;33.50;;;;;2.25;61.18;100995.31;5018142;28;45273;-64
2024/01/14 10:13:24;;;;;;;;;40.75;34.50;;;;;2.27;60.92;100991.88;5030678;28;45543;-64
2024/01/14 10:15:50;;;;;;;;;60.50;40.00;;;;;2.26;61.00;100987.56;5031758;28;45348;-64
2024/01/14 10:18:16;;;;;;;;;38.67;24.00;;;;;2.31;61.09;100985.03;5017903;28;77694;-63
2024/01/14 10:20:41;;;;;;;;;50.50;35.75;;;;;2.33;60.83;100982.47;5030001;28;47116;-68
2024/01/14 10:23:07;;;;;;;;;56.00;39.50;;;;;2.35;60.79;100981.63;5030695;28;45284;-66
2024/01/14 10:25:32;;;;;;;;;48.00;33.25;;;;;2.38;60.85;100983.41;5012869;28;51887;-67
2024/01/14 10:28:03;;;;;;;;;58.25;40.00;;;;;2.40;60.61;100971.34;5037681;28;46025;-67
2024/01/14 10:30:28;;;;;;;;;45.25;32.50;;;;;2.41;60.53;100973.97;5018643;28;45818;-66
2024/01/14 10:32:53;;;;;;;;;49.75;37.00;;;;;2.44;60.73;100974.00;5028355;28;45369;-66
2024/01/14 10:35:19;;;;;;;;;52.33;41.33;;;;;2.47;60.92;100967.97;5008706;28;72252;-64
2024/01/14 10:37:45;;;;;;;;;57.00;39.25;;;;;2.50;60.41;100965.44;5032221;28;45999;-65
2024/01/14 10:40:12;;;;;;;;;70.25;45.50;;;;;2.53;60.81;100962.00;5012290;28;45247;-65
2024/01/14 10:42:37;;;;;;;;;55.25;39.25;;;;;2.49;60.87;100960.25;5014540;28;45296;-64
2024/01/14 10:45:06;;;;;;;;;51.50;31.00;;;;;2.40;60.84;100954.13;5009772;28;73091;-65
2024/01/14 10:47:33;;;;;;;;;47.50;37.50;;;;;2.33;60.54;100954.94;5028299;28;47338;-65
2024/01/14 10:50:00;;;;;;;;;54.00;42.00;;;;;2.33;60.69;100946.31;5019871;28;45464;-66
2024/01/14 10:52:26;;;;;;;;;49.25;37.50;;;;;2.32;60.57;100942.88;5028254;28;45498;-65
2024/01/14 10:54:55;;;;;;;;;64.25;42.50;;;;;2.34;60.50;100936.00;5004377;28;45333;-66
2024/01/14 10:57:34;;;;;;;;;68.25;43.75;;;;;2.36;60.47;100936.03;5020132;28;46273;-65
2024/01/14 11:00:08;;;;;;;;;59.50;42.75;;;;;2.32;60.36;100940.31;5023799;28;45957;-65
2024/01/14 11:02:34;;;;;;;;;63.75;40.25;;;;;2.27;60.26;100935.06;5023851;28;45430;-67
2024/01/14 11:05:00;;;;;;;;;61.75;46.00;;;;;2.22;60.29;100929.00;5018596;28;45394;-65
2024/01/14 11:07:26;;;;;;;;;65.50;44.75;;;;;2.22;60.20;100926.41;5010560;28;46655;-66
2024/01/14 11:09:53;;;;;;;;;66.25;47.00;;;;;2.24;60.42;100919.53;5033971;28;45430;-67